createdAt,value
2022-11-09T00:01:40.467Z,16.50
2022-11-09T00:04:07.546Z,16.52
2022-11-09T00:06:35.115Z,16.53
2022-11-09T00:09:07.401Z,16.54
2022-11-09T00:11:34.442Z,16.56
2022-11-09T00:14:00.842Z,16.56
2022-11-09T00:16:27.358Z,16.58
2022-11-09T00:18:53.897Z,16.60
2022-11-09T00:21:23.261Z,16.61
2022-11-09T00:23:50.151Z,16.62
2022-11-09T00:26:18.419Z,16.64
2022-11-09T00:28:44.861Z,16.64
2022-11-09T00:31:14.210Z,16.66
2022-11-09T00:33:40.989Z,16.66
2022-11-09T00:36:12.779Z,16.68
2022-11-09T00:38:40.587Z,16.68
2022-11-09T00:41:09.518Z,16.71
2022-11-09T00:43:36.725Z,16.73
2022-11-09T00:46:03.538Z,16.74
2022-11-09T00:48:30.380Z,16.75
2022-11-09T00:50:57.850Z,16.76
2022-11-09T00:53:24.918Z,16.78
2022-11-09T00:56:08.888Z,16.81
2022-11-09T00:58:37.604Z,16.82
2022-11-09T01:01:11.401Z,16.84
2022-11-09T01:03:38.766Z,16.83
2022-11-09T01:06:06.093Z,16.83
2022-11-09T01:08:33.763Z,16.84
2022-11-09T01:11:08.889Z,16.86
2022-11-09T01:13:36.605Z,16.86
2022-11-09T01:16:11.922Z,16.87
2022-11-09T01:18:39.148Z,16.87
2022-11-09T01:21:07.108Z,16.87
2022-11-09T01:23:34.119Z,16.86
2022-11-09T01:26:02.961Z,16.86
2022-11-09T01:28:29.583Z,16.86
2022-11-09T01:31:00.686Z,16.85
2022-11-09T01:33:27.094Z,16.87
2022-11-09T01:35:53.541Z,16.87
2022-11-09T01:38:20.090Z,16.87
2022-11-09T01:40:46.498Z,16.87
2022-11-09T01:43:19.263Z,16.89
2022-11-09T01:45:50.424Z,16.87
2022-11-09T01:48:23.361Z,16.85
2022-11-09T01:50:58.710Z,16.82
2022-11-09T01:53:30.291Z,16.80
2022-11-09T01:56:02.132Z,16.77
2022-11-09T01:58:37.619Z,16.74
2022-11-09T02:01:05.644Z,16.70
2022-11-09T02:03:42.848Z,16.68
2022-11-09T02:06:12.143Z,16.64
2022-11-09T02:08:39.813Z,16.61
2022-11-09T02:11:11.472Z,16.58
2022-11-09T02:13:41.671Z,16.56
2022-11-09T02:16:10.558Z,16.53
2022-11-09T02:18:50.280Z,16.52
2022-11-09T02:21:16.816Z,16.48
2022-11-09T02:23:43.563Z,16.45
2022-11-09T02:26:15.714Z,16.44
2022-11-09T02:28:42.423Z,16.40
2022-11-09T02:31:11.969Z,16.38
2022-11-09T02:33:53.258Z,16.37
2022-11-09T02:36:20.136Z,16.33
2022-11-09T02:38:46.556Z,16.31
2022-11-09T02:41:13.339Z,16.28
2022-11-09T02:43:40.784Z,16.26
2022-11-09T02:46:07.193Z,16.22
2022-11-09T02:48:33.589Z,16.21
2022-11-09T02:51:00.057Z,16.18
2022-11-09T02:53:26.492Z,16.16
2022-11-09T02:55:52.892Z,16.15
2022-11-09T02:58:19.311Z,16.13
2022-11-09T03:00:45.941Z,16.13
2022-11-09T03:03:12.614Z,16.13
2022-11-09T03:05:39.067Z,16.11
2022-11-09T03:08:05.785Z,16.09
2022-11-09T03:10:32.174Z,16.08
2022-11-09T03:12:58.631Z,16.05
2022-11-09T03:15:25.215Z,16.02
2022-11-09T03:17:51.625Z,15.99
2022-11-09T03:20:18.142Z,15.96
2022-11-09T03:22:44.558Z,15.92
2022-11-09T03:25:11.025Z,15.89
2022-11-09T03:27:37.442Z,15.84
2022-11-09T03:30:04.257Z,15.80
2022-11-09T03:32:30.815Z,15.76
2022-11-09T03:34:57.262Z,15.70
2022-11-09T03:37:23.666Z,15.65
2022-11-09T03:39:50.225Z,15.61
2022-11-09T03:42:16.687Z,15.58
2022-11-09T03:44:43.070Z,15.54
2022-11-09T03:47:09.543Z,15.53
2022-11-09T03:49:36.009Z,15.52
2022-11-09T03:52:02.757Z,15.52
2022-11-09T03:54:29.166Z,15.55
2022-11-09T03:56:55.580Z,15.58
2022-11-09T03:59:22.026Z,15.60
2022-11-09T04:01:48.488Z,15.64
2022-11-09T04:04:14.949Z,15.68
2022-11-09T04:06:41.439Z,15.69
2022-11-09T04:09:08.016Z,15.71
2022-11-09T04:11:34.404Z,15.71
2022-11-09T04:14:00.950Z,15.73
2022-11-09T04:16:27.430Z,15.72
2022-11-09T04:18:53.892Z,15.73
2022-11-09T04:21:23.700Z,15.74
2022-11-09T04:23:50.751Z,15.74
2022-11-09T04:26:17.224Z,15.75
2022-11-09T04:28:43.696Z,15.76
2022-11-09T04:31:10.134Z,15.79
2022-11-09T04:33:36.566Z,15.80
2022-11-09T04:36:04.767Z,15.83
2022-11-09T04:38:31.486Z,15.85
2022-11-09T04:41:01.931Z,15.89
2022-11-09T04:43:29.220Z,15.90
2022-11-09T04:45:55.790Z,15.93
2022-11-09T04:48:22.270Z,15.95
2022-11-09T04:50:48.684Z,15.97
2022-11-09T04:53:15.714Z,16.00
2022-11-09T04:55:42.727Z,16.03
2022-11-09T04:58:09.936Z,16.07
2022-11-09T05:00:36.903Z,16.09
2022-11-09T05:03:05.041Z,16.13
2022-11-09T05:05:33.847Z,16.16
2022-11-09T05:08:00.338Z,16.17
2022-11-09T05:10:26.834Z,16.19
2022-11-09T05:13:19.556Z,16.22
2022-11-09T05:15:46.331Z,16.24
2022-11-09T05:18:12.765Z,16.25
2022-11-09T05:20:39.191Z,16.26
2022-11-09T05:23:28.194Z,16.27
2022-11-09T05:25:54.617Z,16.28
2022-11-09T05:28:21.041Z,16.29
2022-11-09T05:30:47.465Z,16.28
2022-11-09T05:33:14.772Z,16.29
2022-11-09T05:35:41.165Z,16.28
2022-11-09T05:38:07.562Z,16.28
2022-11-09T05:40:34.663Z,16.25
2022-11-09T05:43:01.233Z,16.24
2022-11-09T05:45:42.213Z,16.23
2022-11-09T05:48:11.151Z,16.23
2022-11-09T05:50:38.527Z,16.26
2022-11-09T05:53:05.394Z,16.26
2022-11-09T05:55:31.781Z,16.29
2022-11-09T05:57:58.361Z,16.31
2022-11-09T06:00:24.886Z,16.34
2022-11-09T06:02:51.361Z,16.36
2022-11-09T06:05:17.967Z,16.38
2022-11-09T06:07:44.364Z,16.38
2022-11-09T06:10:11.441Z,16.41
2022-11-09T06:12:38.207Z,16.43
2022-11-09T06:15:05.519Z,16.44
2022-11-09T06:17:31.983Z,16.44
2022-11-09T06:19:58.448Z,16.45
2022-11-09T06:22:24.847Z,16.44
2022-11-09T06:24:51.252Z,16.46
2022-11-09T06:27:17.662Z,16.46
2022-11-09T06:29:44.042Z,16.45
2022-11-09T06:32:10.493Z,16.45
2022-11-09T06:34:36.869Z,16.46
2022-11-09T06:37:03.264Z,16.45
2022-11-09T06:39:29.676Z,16.43
2022-11-09T06:41:56.122Z,16.39
2022-11-09T06:44:22.537Z,16.34
2022-11-09T06:46:48.963Z,16.30
2022-11-09T06:49:15.360Z,16.22
2022-11-09T06:51:41.758Z,16.17
2022-11-09T06:54:08.292Z,16.09
2022-11-09T06:56:34.809Z,16.03
2022-11-09T06:59:01.210Z,15.96
2022-11-09T07:01:29.096Z,15.90
2022-11-09T07:03:55.659Z,15.85
2022-11-09T07:06:22.622Z,15.79
2022-11-09T07:08:49.175Z,15.71
2022-11-09T07:11:16.311Z,15.66
2022-11-09T07:13:42.801Z,15.62
2022-11-09T07:16:11.918Z,15.57
2022-11-09T07:18:38.615Z,15.53
2022-11-09T07:21:08.868Z,15.51
2022-11-09T07:23:39.877Z,15.48
2022-11-09T07:26:06.572Z,15.46
2022-11-09T07:28:33.390Z,15.45
2022-11-09T07:31:00.005Z,15.43
2022-11-09T07:33:26.983Z,15.41
2022-11-09T07:35:53.673Z,15.39
2022-11-09T07:38:20.204Z,15.36
2022-11-09T07:40:47.042Z,15.34
2022-11-09T07:43:13.485Z,15.31
2022-11-09T07:45:40.586Z,15.29
2022-11-09T07:48:12.201Z,15.28
2022-11-09T07:50:40.126Z,15.27
2022-11-09T07:53:08.325Z,15.26
2022-11-09T07:55:35.896Z,15.24
2022-11-09T07:58:05.913Z,15.24
2022-11-09T08:00:34.363Z,15.23
2022-11-09T08:03:01.329Z,15.23
2022-11-09T08:05:28.263Z,15.24
2022-11-09T08:07:59.659Z,15.26
2022-11-09T08:10:27.631Z,15.29
2022-11-09T08:13:02.696Z,15.34
2022-11-09T08:15:29.710Z,15.37
2022-11-09T08:18:00.914Z,15.43
2022-11-09T08:20:27.417Z,15.45
2022-11-09T08:22:53.826Z,15.49
2022-11-09T08:25:20.313Z,15.54
2022-11-09T08:27:46.674Z,15.59
2022-11-09T08:30:17.403Z,15.65
2022-11-09T08:32:44.972Z,15.70
2022-11-09T08:35:16.818Z,15.76
2022-11-09T08:37:44.583Z,15.81
2022-11-09T08:40:11.171Z,15.86
2022-11-09T08:42:37.538Z,15.91
2022-11-09T08:45:04.806Z,15.95
2022-11-09T08:47:31.257Z,16.00
2022-11-09T08:49:57.637Z,16.07
2022-11-09T08:52:24.018Z,16.14
2022-11-09T08:54:50.385Z,16.21
2022-11-09T08:57:20.512Z,16.28
2022-11-09T08:59:47.103Z,16.33
2022-11-09T09:02:22.453Z,16.40
2022-11-09T09:04:48.865Z,16.45
2022-11-09T09:07:15.293Z,16.51
2022-11-09T09:09:41.673Z,16.59
2022-11-09T09:12:09.459Z,16.66
2022-11-09T09:14:36.201Z,16.73
2022-11-09T09:17:02.709Z,16.80
2022-11-09T09:19:29.223Z,16.85
2022-11-09T09:21:55.657Z,16.92
2022-11-09T09:24:22.115Z,16.97
2022-11-09T09:26:48.478Z,17.04
2022-11-09T09:29:14.947Z,17.11
2022-11-09T09:31:41.408Z,17.18
2022-11-09T09:34:07.941Z,17.24
2022-11-09T09:36:35.541Z,17.29
2022-11-09T09:39:02.206Z,17.34
2022-11-09T09:41:34.886Z,17.40
2022-11-09T09:44:26.964Z,17.46
2022-11-09T09:47:04.886Z,17.52
2022-11-09T09:49:36.427Z,17.57
2022-11-09T09:52:05.968Z,17.63
2022-11-09T09:54:40.562Z,17.67
2022-11-09T09:57:15.885Z,17.73
2022-11-09T09:59:44.738Z,17.77
2022-11-09T10:02:25.756Z,17.82
2022-11-09T10:04:55.146Z,17.82
2022-11-09T10:07:29.506Z,17.86
2022-11-09T10:10:33.443Z,17.86
2022-11-09T10:13:21.218Z,17.88
2022-11-09T10:16:04.735Z,17.91
2022-11-09T10:18:35.030Z,17.93
2022-11-09T10:21:22.826Z,17.95
2022-11-09T10:24:07.943Z,17.96
2022-11-09T10:26:41.193Z,17.98
2022-11-09T10:29:20.487Z,18.01
2022-11-09T10:31:48.759Z,18.01
2022-11-09T10:34:33.746Z,18.05
2022-11-09T10:37:10.026Z,18.07
2022-11-09T10:39:47.242Z,18.12
2022-11-09T10:42:13.619Z,18.18
2022-11-09T10:44:39.986Z,18.26
2022-11-09T10:47:08.591Z,18.39
2022-11-09T10:49:35.494Z,18.50
2022-11-09T10:52:02.017Z,18.61
2022-11-09T10:54:33.204Z,18.71
2022-11-09T10:57:22.916Z,18.80
2022-11-09T10:59:56.650Z,18.88
2022-11-09T11:02:29.723Z,18.94
2022-11-09T11:05:05.215Z,19.00
2022-11-09T11:07:32.438Z,19.01
2022-11-09T11:10:14.899Z,19.06
2022-11-09T11:12:42.537Z,19.07
2022-11-09T11:15:22.965Z,19.08
2022-11-09T11:17:49.841Z,19.05
2022-11-09T11:20:29.330Z,19.04
2022-11-09T11:23:21.099Z,18.99
2022-11-09T11:25:53.877Z,18.94
2022-11-09T11:28:29.145Z,18.86
2022-11-09T11:30:56.455Z,18.79
2022-11-09T11:33:23.465Z,18.77
2022-11-09T11:35:56.510Z,18.75
2022-11-09T11:38:40.986Z,18.74
2022-11-09T11:41:34.853Z,18.74
2022-11-09T11:44:23.019Z,18.75
2022-11-09T11:47:05.945Z,18.77
2022-11-09T11:49:47.852Z,18.78
2022-11-09T11:52:24.288Z,18.83
2022-11-09T11:55:00.841Z,18.85
2022-11-09T11:57:59.563Z,18.89
2022-11-09T12:00:26.225Z,18.91
2022-11-09T12:03:08.253Z,18.96
2022-11-09T12:06:02.430Z,18.97
2022-11-09T12:08:53.835Z,18.99
2022-11-09T12:11:35.982Z,19.00
2022-11-09T12:14:15.288Z,18.99
2022-11-09T12:17:08.203Z,19.02
2022-11-09T12:20:16.576Z,19.07
2022-11-09T12:23:00.980Z,19.11
2022-11-09T12:25:36.801Z,19.13
2022-11-09T12:28:24.545Z,19.15
2022-11-09T12:31:18.982Z,19.18
2022-11-09T12:33:49.904Z,19.22
2022-11-09T12:36:24.321Z,19.25
2022-11-09T12:39:01.960Z,19.27
2022-11-09T12:41:33.372Z,19.32
2022-11-09T12:44:27.185Z,19.38
2022-11-09T12:47:03.251Z,19.43
2022-11-09T12:49:41.478Z,19.47
2022-11-09T12:52:12.628Z,19.52
2022-11-09T12:54:43.911Z,19.52
2022-11-09T12:57:14.450Z,19.52
2022-11-09T12:59:50.209Z,19.51
2022-11-09T13:02:22.983Z,19.52
2022-11-09T13:05:05.113Z,19.50
2022-11-09T13:07:38.391Z,19.44
2022-11-09T13:10:05.279Z,19.36
2022-11-09T13:12:40.066Z,19.29
2022-11-09T13:15:22.652Z,19.20
2022-11-09T13:17:57.425Z,19.12
2022-11-09T13:26:33.379Z,18.90
2022-11-09T13:29:15.137Z,18.86
2022-11-09T13:32:02.846Z,18.81
2022-11-09T13:34:46.043Z,18.76
2022-11-09T13:37:45.047Z,18.71
2022-11-09T13:40:31.690Z,18.67
2022-11-09T13:43:08.658Z,18.63
2022-11-09T13:45:51.617Z,18.61
2022-11-09T13:48:44.008Z,18.58
2022-11-09T13:51:21.013Z,18.54
2022-11-09T13:54:26.125Z,18.53
2022-11-09T13:56:53.161Z,18.50
2022-11-09T13:59:30.034Z,18.48
2022-11-09T14:01:59.077Z,18.47
2022-11-09T14:04:37.781Z,18.46
2022-11-09T14:07:07.165Z,18.45
2022-11-09T14:09:54.084Z,18.42
2022-11-09T14:12:42.203Z,18.38
2022-11-09T14:15:39.771Z,18.34
2022-11-09T14:18:45.858Z,18.31
2022-11-09T14:21:39.976Z,18.27
2022-11-09T14:24:19.511Z,18.23
2022-11-09T14:27:18.523Z,18.21
2022-11-09T14:29:53.155Z,18.17
2022-11-09T14:32:29.050Z,18.15
2022-11-09T14:35:11.824Z,18.10
2022-11-09T14:37:44.066Z,18.06
2022-11-09T14:40:19.876Z,18.02
2022-11-09T14:42:52.368Z,17.97
2022-11-09T14:45:31.095Z,17.92
2022-11-09T14:47:59.176Z,17.90
2022-11-09T14:50:37.497Z,17.87
2022-11-09T14:53:05.699Z,17.83
2022-11-09T14:55:34.232Z,17.82
2022-11-09T14:58:01.562Z,17.79
2022-11-09T15:00:33.095Z,17.78
2022-11-09T15:03:20.368Z,17.75
2022-11-09T15:05:46.786Z,17.73
2022-11-09T15:08:21.402Z,17.72
2022-11-09T15:10:53.087Z,17.70
2022-11-09T15:13:39.595Z,17.68
2022-11-09T15:16:06.903Z,17.64
2022-11-09T15:18:36.784Z,17.62
2022-11-09T15:21:14.373Z,17.60
2022-11-09T15:23:47.164Z,17.57
2022-11-09T15:26:36.513Z,17.53
2022-11-09T15:29:27.951Z,17.49
2022-11-09T15:32:10.830Z,17.45
2022-11-09T15:34:51.546Z,17.41
2022-11-09T15:37:31.984Z,17.37
2022-11-09T15:39:58.931Z,17.31
2022-11-09T15:42:27.039Z,17.28
2022-11-09T15:44:55.862Z,17.24
2022-11-09T15:47:37.666Z,17.21
2022-11-09T15:50:14.828Z,17.16
2022-11-09T15:52:44.258Z,17.11
2022-11-09T15:55:15.655Z,17.10
2022-11-09T15:57:43.198Z,17.05
2022-11-09T16:00:19.402Z,17.03
2022-11-09T16:02:47.290Z,16.99
2022-11-09T16:05:13.922Z,16.96
2022-11-09T16:07:51.158Z,16.95
2022-11-09T16:10:20.297Z,16.90
2022-11-09T16:12:47.378Z,16.86
2022-11-09T16:15:13.866Z,16.80
2022-11-09T16:17:40.222Z,16.75
2022-11-09T16:20:07.189Z,16.68
2022-11-09T16:22:33.954Z,16.64
2022-11-09T16:25:00.388Z,16.59
2022-11-09T16:30:23.011Z,16.52
2022-11-09T16:32:49.638Z,16.49
2022-11-09T16:35:26.621Z,16.46
2022-11-09T16:37:55.273Z,16.42
2022-11-09T16:40:22.342Z,16.38
2022-11-09T16:42:51.214Z,16.34
2022-11-09T16:45:17.719Z,16.29
2022-11-09T16:47:47.678Z,16.26
2022-11-09T16:50:14.489Z,16.18
2022-11-09T16:52:41.023Z,16.13
2022-11-09T16:55:09.322Z,16.05
2022-11-09T16:57:35.670Z,15.98
2022-11-09T17:00:02.259Z,15.92
2022-11-09T17:02:28.643Z,15.84
2022-11-09T17:04:54.995Z,15.77
2022-11-09T17:07:21.437Z,15.71
2022-11-09T17:09:47.820Z,15.64
2022-11-09T17:12:14.934Z,15.57
2022-11-09T17:14:41.792Z,15.52
2022-11-09T17:17:08.169Z,15.45
2022-11-09T17:19:35.946Z,15.40
2022-11-09T17:22:03.985Z,15.33
2022-11-09T17:24:30.537Z,15.29
2022-11-09T17:26:57.212Z,15.23
2022-11-09T17:29:24.560Z,15.19
2022-11-09T17:31:51.158Z,15.14
2022-11-09T17:34:17.563Z,15.10
2022-11-09T17:39:30.335Z,15.09
2022-11-09T17:41:56.819Z,15.04
2022-11-09T17:44:23.186Z,15.02
2022-11-09T17:46:49.615Z,14.99
2022-11-09T17:49:16.153Z,14.98
2022-11-09T17:51:42.585Z,14.97
2022-11-09T17:54:08.943Z,14.97
2022-11-09T17:56:35.407Z,14.97
2022-11-09T17:59:04.558Z,14.99
2022-11-09T18:01:32.392Z,14.99
2022-11-09T18:04:05.528Z,15.01
2022-11-09T18:06:32.954Z,15.02
2022-11-09T18:09:27.167Z,15.04
2022-11-09T18:11:45.817Z,15.10
2022-11-09T18:14:12.185Z,15.09
2022-11-09T18:16:38.525Z,15.07
2022-11-09T18:19:05.893Z,15.04
2022-11-09T18:21:33.440Z,15.04
2022-11-09T18:23:59.969Z,15.02
2022-11-09T18:26:26.434Z,15.00
2022-11-09T18:28:55.072Z,14.98
2022-11-09T18:31:21.389Z,14.96
2022-11-09T18:33:47.750Z,14.96
2022-11-09T18:36:16.826Z,14.92
2022-11-09T18:38:44.301Z,14.90
2022-11-09T18:41:12.239Z,14.87
2022-11-09T18:43:38.702Z,14.85
2022-11-09T18:46:09.734Z,14.83
2022-11-09T18:48:37.564Z,14.80
2022-11-09T18:51:08.223Z,14.77
2022-11-09T18:53:37.377Z,14.77
2022-11-09T18:56:07.186Z,14.77
2022-11-09T18:58:34.414Z,14.77
2022-11-09T19:01:03.898Z,14.77
2022-11-09T19:03:30.354Z,14.79
2022-11-09T19:05:56.814Z,14.79
2022-11-09T19:08:42.226Z,14.80
2022-11-09T19:11:13.484Z,14.83
2022-11-09T19:13:40.617Z,14.82
2022-11-09T19:16:09.945Z,14.85
2022-11-09T19:18:36.418Z,14.87
2022-11-09T19:21:03.373Z,14.90
2022-11-09T19:23:34.310Z,14.93
2022-11-09T19:26:01.954Z,14.99
2022-11-09T19:28:28.340Z,15.03
2022-11-09T19:30:54.663Z,15.06
2022-11-09T19:33:21.007Z,15.09
2022-11-09T19:36:15.165Z,15.15
2022-11-09T19:38:38.042Z,15.15
2022-11-09T19:41:04.485Z,15.18
2022-11-09T19:43:30.802Z,15.19
2022-11-09T19:45:57.156Z,15.20
2022-11-09T19:48:23.830Z,15.22
2022-11-09T19:50:52.055Z,15.23
2022-11-09T19:53:19.137Z,15.23
2022-11-09T19:55:45.733Z,15.24
2022-11-09T19:58:12.202Z,15.22
2022-11-09T20:00:38.590Z,15.21
2022-11-09T20:03:05.091Z,15.19
2022-11-09T20:05:34.719Z,15.18
2022-11-09T20:08:04.937Z,15.16
2022-11-09T20:10:31.586Z,15.13
2022-11-09T20:12:58.509Z,15.10
2022-11-09T20:15:24.833Z,15.07
2022-11-09T20:17:51.202Z,15.04
2022-11-09T20:20:17.682Z,14.99
2022-11-09T20:22:44.106Z,14.95
2022-11-09T20:25:10.607Z,14.87
2022-11-09T20:27:37.103Z,14.80
2022-11-09T20:30:04.398Z,14.71
2022-11-09T20:32:31.039Z,14.65
2022-11-09T20:34:57.383Z,14.57
2022-11-09T20:37:23.729Z,14.48
2022-11-09T20:39:50.083Z,14.41
2022-11-09T20:42:16.404Z,14.35
2022-11-09T20:44:42.739Z,14.27
2022-11-09T20:47:09.604Z,14.22
2022-11-09T20:49:35.927Z,14.16
2022-11-09T20:52:02.327Z,14.11
2022-11-09T20:54:28.660Z,14.04
2022-11-09T20:56:55.265Z,14.00
2022-11-09T20:59:21.590Z,13.96
2022-11-09T21:01:48.503Z,13.91
2022-11-09T21:04:15.026Z,13.88
2022-11-09T21:06:41.476Z,13.83
2022-11-09T21:09:08.021Z,13.79
2022-11-09T21:11:57.286Z,13.75
2022-11-09T21:14:23.890Z,13.72
2022-11-09T21:16:50.257Z,13.68
2022-11-09T21:19:16.578Z,13.64
2022-11-09T21:21:42.934Z,13.59
2022-11-09T21:24:42.022Z,13.56
2022-11-09T21:27:47.690Z,13.54
2022-11-09T21:30:15.007Z,13.50
2022-11-09T21:32:41.346Z,13.47
2022-11-09T21:35:08.233Z,13.45
2022-11-09T21:37:34.815Z,13.42
2022-11-09T21:40:01.163Z,13.41
2022-11-09T21:42:27.742Z,13.38
2022-11-09T21:44:54.122Z,13.36
2022-11-09T21:47:20.476Z,13.35
2022-11-09T21:49:46.864Z,13.35
2022-11-09T21:52:13.224Z,13.34
2022-11-09T21:54:40.496Z,13.31
2022-11-09T21:57:07.813Z,13.31
2022-11-09T21:59:34.162Z,13.29
2022-11-09T22:02:00.535Z,13.27
2022-11-09T22:04:26.939Z,13.26
2022-11-09T22:06:53.357Z,13.25
2022-11-09T22:09:19.809Z,13.23
2022-11-09T22:12:05.070Z,13.22
2022-11-09T22:14:50.718Z,13.21
2022-11-09T22:17:17.036Z,13.22
2022-11-09T22:20:02.585Z,13.20
2022-11-09T22:22:30.428Z,13.18
2022-11-09T22:24:57.109Z,13.17
2022-11-09T22:27:23.776Z,13.16
2022-11-09T22:29:50.286Z,13.16
2022-11-09T22:32:16.686Z,13.15
2022-11-09T22:34:44.641Z,13.13
2022-11-09T22:37:11.099Z,13.11
2022-11-09T22:39:39.031Z,13.09
2022-11-09T22:42:07.454Z,13.07
2022-11-09T22:44:33.774Z,13.05
2022-11-09T22:47:00.267Z,13.02
2022-11-09T22:49:26.715Z,13.00
2022-11-09T22:51:53.426Z,12.96
2022-11-09T22:54:23.002Z,12.95
2022-11-09T22:56:49.332Z,12.92
2022-11-09T22:59:15.765Z,12.89
2022-11-09T23:01:42.265Z,12.87
2022-11-09T23:04:09.829Z,12.86
2022-11-09T23:06:36.235Z,12.85
2022-11-09T23:09:02.722Z,12.84
2022-11-09T23:11:29.059Z,12.83
2022-11-09T23:13:55.855Z,12.84
2022-11-09T23:16:24.663Z,12.84
2022-11-09T23:18:54.540Z,12.82
2022-11-09T23:21:28.261Z,12.82
2022-11-09T23:23:57.383Z,12.79
2022-11-09T23:26:24.667Z,12.78
2022-11-09T23:28:51.087Z,12.74
2022-11-09T23:31:19.766Z,12.73
2022-11-09T23:33:54.384Z,12.72
2022-11-09T23:36:25.867Z,12.71
2022-11-09T23:38:52.292Z,12.68
2022-11-09T23:41:19.111Z,12.68
2022-11-09T23:43:49.296Z,12.65
2022-11-09T23:46:17.170Z,12.64
2022-11-09T23:48:43.722Z,12.63
2022-11-09T23:51:10.253Z,12.62
2022-11-09T23:53:36.973Z,12.61
2022-11-09T23:56:09.247Z,12.60
2022-11-09T23:58:36.421Z,12.58
